Time;durP1;ratioP1;P1;durP2;ratioP2;P2;SDS_P1;SDS_P2;PMS_P1;PMS_P2;Temp;Humidity;BMP_temperature;BMP_pressure;BME280_temperature;BME280_humidity;BME280_pressure;Samples;Min_cycle;Max_cycle;Signal;HPM_P1;HPM_P2
2022/04/07 00:00:21;;;;;;;10.43;4.10;;;;;;;;;;5054635;28;20054;-76
2022/04/07 00:02:47;;;;;;;8.65;3.88;;;;;;;;;;5054470;28;20029;-77
2022/04/07 00:05:14;;;;;;;11.05;5.05;;;;;;;;;;5054530;28;20056;-76
2022/04/07 00:07:40;;;;;;;10.57;5.28;;;;;;;;;;5054635;28;20048;-76
2022/04/07 00:10:06;;;;;;;8.95;4.90;;;;;;;;;;5054096;28;20112;-76
2022/04/07 00:12:33;;;;;;;15.90;5.88;;;;;;;;;;5054536;28;20491;-79
2022/04/07 00:15:00;;;;;;;14.02;7.90;;;;;;;;;;5054362;28;20029;-78
2022/04/07 00:17:32;;;;;;;11.15;5.43;;;;;;;;;;5054522;28;20025;-76
2022/04/07 00:19:58;;;;;;;12.07;5.03;;;;;;;;;;5054228;28;20029;-79
2022/04/07 00:22:24;;;;;;;12.55;5.28;;;;;;;;;;5054043;28;20033;-77
2022/04/07 00:24:50;;;;;;;7.80;5.20;;;;;;;;;;5054111;28;20056;-77
2022/04/07 00:27:16;;;;;;;13.15;5.07;;;;;;;;;;5054132;28;20100;-75
2022/04/07 00:29:43;;;;;;;11.13;5.00;;;;;;;;;;5054126;28;20430;-75
2022/04/07 00:32:09;;;;;;;11.15;4.47;;;;;;;;;;5053891;28;20096;-75
2022/04/07 00:34:35;;;;;;;11.95;4.65;;;;;;;;;;5054132;28;20025;-77
2022/04/07 00:37:02;;;;;;;7.50;3.72;;;;;;;;;;5053823;28;20030;-75
2022/04/07 00:39:28;;;;;;;11.45;4.15;;;;;;;;;;5053975;28;20032;-76
2022/04/07 00:41:55;;;;;;;9.68;4.03;;;;;;;;;;5052762;28;20033;-76
2022/04/07 00:44:22;;;;;;;10.50;4.07;;;;;;;;;;5053924;28;20029;-75
2022/04/07 00:46:49;;;;;;;8.60;3.85;;;;;;;;;;5053688;28;20028;-76
2022/04/07 00:49:15;;;;;;;9.80;4.18;;;;;;;;;;5053584;28;20094;-77
2022/04/07 00:51:43;;;;;;;10.25;4.40;;;;;;;;;;5053909;28;20064;-76
2022/04/07 00:54:09;;;;;;;10.13;3.20;;;;;;;;;;5053820;28;20448;-79
2022/04/07 00:56:36;;;;;;;9.85;3.97;;;;;;;;;;5053827;28;20040;-77
2022/04/07 00:59:02;;;;;;;9.85;3.50;;;;;;;;;;5053369;28;20049;-78
2022/04/07 01:01:29;;;;;;;8.07;4.07;;;;;;;;;;5053673;28;20029;-77
2022/04/07 01:03:55;;;;;;;9.52;3.33;;;;;;;;;;5053367;28;20111;-76
2022/04/07 01:06:21;;;;;;;9.05;3.53;;;;;;;;;;5053543;28;20024;-77
2022/04/07 01:08:47;;;;;;;13.15;4.22;;;;;;;;;;5053386;28;20461;-76
2022/04/07 01:11:14;;;;;;;10.77;4.03;;;;;;;;;;5053045;28;20039;-76
2022/04/07 01:13:50;;;;;;;9.43;3.67;;;;;;;;;;5053335;28;20464;-79
2022/04/07 01:16:16;;;;;;;10.88;4.13;;;;;;;;;;5053368;28;20396;-80
2022/04/07 01:18:44;;;;;;;15.35;5.95;;;;;;;;;;5053214;28;20472;-78
2022/04/07 01:21:11;;;;;;;16.25;5.75;;;;;;;;;;5053193;28;20061;-76
2022/04/07 01:23:38;;;;;;;11.50;5.18;;;;;;;;;;5053376;28;20541;-78
2022/04/07 01:26:09;;;;;;;12.70;4.93;;;;;;;;;;5052857;28;20404;-77
2022/04/07 01:28:36;;;;;;;13.80;4.63;;;;;;;;;;5053111;28;20128;-76
2022/04/07 01:31:02;;;;;;;14.50;4.78;;;;;;;;;;5052850;28;20033;-77
2022/04/07 01:33:29;;;;;;;12.55;4.18;;;;;;;;;;5052806;28;20028;-76
2022/04/07 01:35:55;;;;;;;12.40;4.25;;;;;;;;;;5052664;28;20048;-76
2022/04/07 01:38:22;;;;;;;13.52;4.75;;;;;;;;;;5052819;28;20464;-76
2022/04/07 01:40:48;;;;;;;13.30;4.85;;;;;;;;;;5052763;28;20028;-75
2022/04/07 01:43:15;;;;;;;13.40;5.00;;;;;;;;;;5052728;28;20491;-77
2022/04/07 01:45:42;;;;;;;17.88;8.63;;;;;;;;;;5052685;28;20096;-78
2022/04/07 01:48:09;;;;;;;18.60;9.63;;;;;;;;;;5052583;28;20033;-77
2022/04/07 01:50:35;;;;;;;12.75;4.85;;;;;;;;;;5051522;28;20373;-78
2022/04/07 01:53:02;;;;;;;16.95;4.55;;;;;;;;;;5052287;28;20120;-77
2022/04/07 01:55:28;;;;;;;13.07;4.50;;;;;;;;;;5052586;28;20025;-75
2022/04/07 01:57:56;;;;;;;12.10;5.20;;;;;;;;;;5052146;28;20032;-76
2022/04/07 02:00:22;;;;;;;12.00;5.00;;;;;;;;;;5052430;28;20067;-77
2022/04/07 02:02:49;;;;;;;14.38;4.97;;;;;;;;;;5052517;28;20435;-78
2022/04/07 02:05:15;;;;;;;12.13;4.70;;;;;;;;;;5052324;28;20103;-75
2022/04/07 02:07:43;;;;;;;12.18;4.30;;;;;;;;;;5052336;28;20507;-76
2022/04/07 02:10:11;;;;;;;8.95;4.18;;;;;;;;;;5052147;28;20461;-76
2022/04/07 02:12:39;;;;;;;12.32;4.95;;;;;;;;;;5051064;28;20434;-75
2022/04/07 02:15:06;;;;;;;11.60;5.10;;;;;;;;;;5052179;28;20020;-76
2022/04/07 02:17:32;;;;;;;11.38;4.20;;;;;;;;;;5052297;28;20032;-78
2022/04/07 02:19:59;;;;;;;10.25;3.72;;;;;;;;;;5051929;28;20028;-77
2022/04/07 02:22:28;;;;;;;9.15;3.63;;;;;;;;;;5052480;28;20043;-76
2022/04/07 02:24:56;;;;;;;14.48;4.35;;;;;;;;;;5052211;28;20033;-78
2022/04/07 02:27:22;;;;;;;9.93;4.00;;;;;;;;;;5052084;28;20033;-75
2022/04/07 02:29:48;;;;;;;9.82;4.07;;;;;;;;;;5049591;28;20029;-77
2022/04/07 02:32:14;;;;;;;9.82;4.03;;;;;;;;;;5051815;28;20056;-79
2022/04/07 02:34:41;;;;;;;6.38;3.45;;;;;;;;;;5052568;28;20058;-79
2022/04/07 02:37:07;;;;;;;11.40;3.58;;;;;;;;;;5052073;28;20025;-75
2022/04/07 02:39:34;;;;;;;8.95;3.67;;;;;;;;;;5052121;28;20391;-76
2022/04/07 02:42:00;;;;;;;7.35;3.45;;;;;;;;;;5051815;28;20489;-77
2022/04/07 02:44:26;;;;;;;9.00;3.03;;;;;;;;;;5051993;28;20483;-75
2022/04/07 02:46:52;;;;;;;8.98;3.38;;;;;;;;;;5051937;28;20036;-76
2022/04/07 02:49:18;;;;;;;10.90;3.08;;;;;;;;;;5051777;28;20036;-77
2022/04/07 02:51:44;;;;;;;9.10;3.80;;;;;;;;;;5052063;28;20422;-78
2022/04/07 02:54:11;;;;;;;13.57;4.53;;;;;;;;;;5051846;28;20108;-75
2022/04/07 02:56:37;;;;;;;13.18;4.53;;;;;;;;;;5051860;28;20021;-78
2022/04/07 02:59:03;;;;;;;12.95;4.47;;;;;;;;;;5051525;28;20060;-75
2022/04/07 03:01:30;;;;;;;10.55;5.30;;;;;;;;;;5050549;28;20047;-76
2022/04/07 03:03:56;;;;;;;10.90;4.47;;;;;;;;;;5053001;28;20075;-75
2022/04/07 03:06:22;;;;;;;12.82;4.93;;;;;;;;;;5055557;28;20391;-78
2022/04/07 03:08:49;;;;;;;12.63;5.70;;;;;;;;;;5055723;28;20036;-77
2022/04/07 03:11:15;;;;;;;12.35;4.70;;;;;;;;;;5055370;28;20535;-78
2022/04/07 03:13:41;;;;;;;14.18;5.93;;;;;;;;;;5055728;28;20035;-78
2022/04/07 03:16:08;;;;;;;20.92;12.82;;;;;;;;;;5055362;28;20086;-77
2022/04/07 03:18:34;;;;;;;24.73;15.10;;;;;;;;;;5055545;28;20029;-76
2022/04/07 03:21:00;;;;;;;18.08;10.95;;;;;;;;;;5055521;28;20029;-77
2022/04/07 03:23:26;;;;;;;15.25;6.28;;;;;;;;;;5055428;28;20096;-78
2022/04/07 03:25:53;;;;;;;12.73;5.97;;;;;;;;;;5055274;28;20052;-76
2022/04/07 03:28:19;;;;;;;7.80;4.13;;;;;;;;;;5055083;28;20033;-78
2022/04/07 03:30:45;;;;;;;8.13;3.00;;;;;;;;;;5055223;28;20029;-75
2022/04/07 03:33:11;;;;;;;7.15;3.03;;;;;;;;;;5055064;28;20043;-77
2022/04/07 03:35:38;;;;;;;8.18;3.10;;;;;;;;;;5055255;28;20090;-77
2022/04/07 03:38:07;;;;;;;6.63;3.05;;;;;;;;;;5055172;28;20029;-79
2022/04/07 03:40:34;;;;;;;7.78;3.38;;;;;;;;;;5054999;28;20032;-76
2022/04/07 03:43:01;;;;;;;5.78;2.72;;;;;;;;;;5055216;28;20109;-76
2022/04/07 03:45:27;;;;;;;9.00;3.28;;;;;;;;;;5054816;28;20049;-77
2022/04/07 03:47:53;;;;;;;6.68;2.70;;;;;;;;;;5055071;28;20068;-77
2022/04/07 03:50:19;;;;;;;6.85;3.42;;;;;;;;;;5054309;28;20029;-78
2022/04/07 03:52:45;;;;;;;40.80;28.15;;;;;;;;;;5054903;28;20365;-77
2022/04/07 03:55:11;;;;;;;11.38;4.65;;;;;;;;;;5054656;28;20090;-78
2022/04/07 03:57:38;;;;;;;5.82;3.08;;;;;;;;;;5053569;28;20029;-76
2022/04/07 04:00:05;;;;;;;8.32;3.25;;;;;;;;;;5054668;28;20077;-77
2022/04/07 04:02:31;;;;;;;5.20;3.15;;;;;;;;;;5054444;28;20468;-79
2022/04/07 04:04:57;;;;;;;5.85;3.17;;;;;;;;;;5054807;28;20104;-78
2022/04/07 04:07:23;;;;;;;5.68;3.35;;;;;;;;;;5054323;28;20033;-77
2022/04/07 04:09:49;;;;;;;6.10;2.90;;;;;;;;;;5054756;28;20028;-76
2022/04/07 04:12:15;;;;;;;6.35;2.97;;;;;;;;;;5054330;28;20025;-76
2022/04/07 04:14:42;;;;;;;7.78;3.10;;;;;;;;;;5054268;28;20025;-77
2022/04/07 04:17:08;;;;;;;5.85;3.05;;;;;;;;;;5054663;28;20029;-76
2022/04/07 04:19:34;;;;;;;9.18;3.60;;;;;;;;;;5054187;28;20024;-76
2022/04/07 04:22:00;;;;;;;9.02;3.90;;;;;;;;;;5054158;28;20087;-77
2022/04/07 04:24:26;;;;;;;6.22;3.20;;;;;;;;;;5054037;28;20487;-81
2022/04/07 04:26:52;;;;;;;8.95;3.55;;;;;;;;;;5054471;28;20025;-80
2022/04/07 04:29:19;;;;;;;6.22;3.17;;;;;;;;;;5054303;28;20061;-79
2022/04/07 04:31:45;;;;;;;7.03;3.78;;;;;;;;;;5054121;28;20393;-78
2022/04/07 04:34:11;;;;;;;18.88;5.70;;;;;;;;;;5054307;28;20104;-80
2022/04/07 04:36:37;;;;;;;10.38;4.15;;;;;;;;;;5054035;28;20039;-78
2022/04/07 04:39:03;;;;;;;12.98;4.50;;;;;;;;;;5054253;28;20365;-80
2022/04/07 04:41:29;;;;;;;8.45;3.40;;;;;;;;;;5053878;28;20032;-78
2022/04/07 04:43:56;;;;;;;7.47;3.65;;;;;;;;;;5052786;28;20443;-80
2022/04/07 04:46:22;;;;;;;9.43;4.43;;;;;;;;;;5054178;28;20025;-78
2022/04/07 04:48:48;;;;;;;8.07;3.95;;;;;;;;;;5053874;28;20549;-77
2022/04/07 04:51:14;;;;;;;6.60;3.38;;;;;;;;;;5053938;28;20029;-77
2022/04/07 04:53:40;;;;;;;9.65;4.25;;;;;;;;;;5053534;28;20372;-79
2022/04/07 04:56:06;;;;;;;7.82;3.17;;;;;;;;;;5052466;28;20395;-80
2022/04/07 04:58:32;;;;;;;8.93;4.00;;;;;;;;;;5052192;28;20056;-80
2022/04/07 05:00:58;;;;;;;9.75;3.75;;;;;;;;;;5053661;28;20025;-79
2022/04/07 05:03:25;;;;;;;10.70;4.40;;;;;;;;;;5053641;28;20033;-77
2022/04/07 05:05:51;;;;;;;9.48;4.03;;;;;;;;;;5053185;28;20064;-78
2022/04/07 05:08:19;;;;;;;7.15;4.45;;;;;;;;;;5053520;28;20033;-78
2022/04/07 05:10:45;;;;;;;9.23;3.58;;;;;;;;;;5052034;28;20028;-78
2022/04/07 05:13:11;;;;;;;8.98;4.20;;;;;;;;;;5053537;28;20040;-78
2022/04/07 05:15:39;;;;;;;6.93;4.55;;;;;;;;;;5052065;28;20040;-79
2022/04/07 05:18:05;;;;;;;7.97;3.17;;;;;;;;;;5053663;28;20438;-78
2022/04/07 05:20:32;;;;;;;6.80;4.28;;;;;;;;;;5052980;28;20060;-80
2022/04/07 05:22:58;;;;;;;7.47;3.50;;;;;;;;;;5053224;28;20116;-79
2022/04/07 05:25:24;;;;;;;7.72;4.72;;;;;;;;;;5053406;28;20449;-78
2022/04/07 05:27:50;;;;;;;7.47;4.28;;;;;;;;;;5050356;28;20040;-77
2022/04/07 05:30:16;;;;;;;11.93;4.13;;;;;;;;;;5055403;28;20025;-79
2022/04/07 05:32:43;;;;;;;8.80;5.00;;;;;;;;;;5052041;28;20032;-78
2022/04/07 05:35:15;;;;;;;9.27;4.82;;;;;;;;;;5052186;28;20025;-74
2022/04/07 05:37:42;;;;;;;5.22;3.28;;;;;;;;;;5050437;28;20033;-74
2022/04/07 05:40:12;;;;;;;8.15;3.97;;;;;;;;;;5049902;28;20127;-76
2022/04/07 05:42:38;;;;;;;5.30;2.90;;;;;;;;;;5049274;28;20108;-75
2022/04/07 05:45:05;;;;;;;6.93;3.78;;;;;;;;;;5052980;28;20029;-74
2022/04/07 05:47:31;;;;;;;7.82;4.40;;;;;;;;;;5048138;28;20064;-79
2022/04/07 05:49:57;;;;;;;7.72;4.03;;;;;;;;;;5051443;28;20035;-79
2022/04/07 05:52:23;;;;;;;8.55;4.90;;;;;;;;;;5051487;28;20110;-78
2022/04/07 05:54:50;;;;;;;8.18;4.90;;;;;;;;;;5050366;28;20078;-78
2022/04/07 05:57:18;;;;;;;13.30;6.97;;;;;;;;;;5049323;28;20384;-77
2022/04/07 05:59:47;;;;;;;8.73;4.22;;;;;;;;;;5043402;28;20048;-80
2022/04/07 06:02:13;;;;;;;8.30;4.53;;;;;;;;;;5049706;28;20029;-80
2022/04/07 06:04:42;;;;;;;11.98;5.20;;;;;;;;;;5045461;28;20666;-80
2022/04/07 06:07:08;;;;;;;11.88;5.40;;;;;;;;;;5044936;28;20044;-76
2022/04/07 06:09:35;;;;;;;9.90;5.30;;;;;;;;;;5047653;28;20119;-76
2022/04/07 06:12:09;;;;;;;7.85;3.72;;;;;;;;;;5049234;28;20023;-78
2022/04/07 06:14:38;;;;;;;7.32;3.05;;;;;;;;;;5048600;28;20025;-79
2022/04/07 06:17:04;;;;;;;6.05;2.78;;;;;;;;;;5048832;28;20187;-82
2022/04/07 06:19:30;;;;;;;8.55;2.80;;;;;;;;;;5048015;28;20113;-81
2022/04/07 06:21:56;;;;;;;8.52;3.10;;;;;;;;;;5045218;28;20029;-77
2022/04/07 06:24:23;;;;;;;6.97;2.97;;;;;;;;;;5048764;28;20043;-81
2022/04/07 06:26:52;;;;;;;12.95;5.70;;;;;;;;;;5049460;28;20349;-77
2022/04/07 06:29:24;;;;;;;7.10;3.58;;;;;;;;;;5048589;28;20037;-76
2022/04/07 06:31:50;;;;;;;6.40;3.67;;;;;;;;;;5048175;28;20501;-76
2022/04/07 06:34:16;;;;;;;8.55;3.88;;;;;;;;;;5047010;28;20028;-77
2022/04/07 06:36:42;;;;;;;8.60;4.22;;;;;;;;;;5040571;28;20033;-76
2022/04/07 06:39:11;;;;;;;6.05;3.00;;;;;;;;;;5047272;28;20017;-78
2022/04/07 06:41:49;;;;;;;7.40;3.00;;;;;;;;;;5053509;28;20098;-78
2022/04/07 06:44:19;;;;;;;7.70;2.83;;;;;;;;;;5054689;28;20033;-79
2022/04/07 06:46:45;;;;;;;7.85;2.75;;;;;;;;;;5053973;28;20033;-78
2022/04/07 06:49:11;;;;;;;8.40;3.05;;;;;;;;;;5052911;28;20049;-79
2022/04/07 06:51:37;;;;;;;12.48;7.78;;;;;;;;;;5054475;28;20090;-78
2022/04/07 06:54:03;;;;;;;8.40;4.95;;;;;;;;;;5053647;28;20037;-77
2022/04/07 06:56:29;;;;;;;5.72;2.95;;;;;;;;;;5054060;28;20032;-80
2022/04/07 06:58:55;;;;;;;7.65;2.72;;;;;;;;;;5053973;28;20399;-79
2022/04/07 07:01:22;;;;;;;9.35;2.65;;;;;;;;;;5053477;28;20033;-79
2022/04/07 07:03:48;;;;;;;10.25;4.30;;;;;;;;;;5053874;28;20194;-79
2022/04/07 07:06:14;;;;;;;5.30;2.78;;;;;;;;;;5053720;28;20039;-80
2022/04/07 07:08:42;;;;;;;5.50;2.17;;;;;;;;;;5053989;28;20037;-82
2022/04/07 07:11:08;;;;;;;7.28;2.83;;;;;;;;;;5053861;28;20033;-79
2022/04/07 07:13:36;;;;;;;5.68;2.33;;;;;;;;;;5054048;28;20090;-78
2022/04/07 07:16:02;;;;;;;5.80;3.22;;;;;;;;;;5053987;28;20567;-80
2022/04/07 07:18:28;;;;;;;4.82;2.67;;;;;;;;;;5053929;28;20100;-78
2022/04/07 07:20:54;;;;;;;3.78;1.95;;;;;;;;;;5052862;28;20404;-83
2022/04/07 07:23:20;;;;;;;4.90;2.70;;;;;;;;;;5034088;28;20026;-79
2022/04/07 07:25:47;;;;;;;6.10;3.10;;;;;;;;;;5033846;28;20025;-78
2022/04/07 07:28:15;;;;;;;4.78;3.00;;;;;;;;;;5043940;28;20025;-76
2022/04/07 07:30:42;;;;;;;4.88;2.42;;;;;;;;;;5054203;28;20033;-79
2022/04/07 07:33:08;;;;;;;7.20;2.13;;;;;;;;;;5054886;28;20155;-77
2022/04/07 07:35:34;;;;;;;6.50;2.55;;;;;;;;;;5053884;28;20039;-77
2022/04/07 07:38:01;;;;;;;5.30;3.05;;;;;;;;;;5056945;28;20027;-78
2022/04/07 07:40:31;;;;;;;5.20;3.17;;;;;;;;;;5073204;28;20103;-79
2022/04/07 07:43:00;;;;;;;4.40;2.17;;;;;;;;;;5071937;28;20025;-79
2022/04/07 07:45:26;;;;;;;5.43;2.47;;;;;;;;;;5072656;28;20035;-76
2022/04/07 07:47:53;;;;;;;3.75;2.42;;;;;;;;;;5073502;28;20043;-77
2022/04/07 07:50:19;;;;;;;6.57;2.33;;;;;;;;;;5057133;28;20125;-79
2022/04/07 07:52:46;;;;;;;7.68;2.60;;;;;;;;;;5073299;28;20070;-82
2022/04/07 07:55:12;;;;;;;7.32;3.03;;;;;;;;;;5073390;28;20035;-82
2022/04/07 07:57:38;;;;;;;4.97;2.47;;;;;;;;;;5072472;28;20025;-81
2022/04/07 08:00:07;;;;;;;6.00;3.30;;;;;;;;;;5070523;28;20049;-83
2022/04/07 08:02:34;;;;;;;8.57;4.80;;;;;;;;;;5052729;28;20090;-80
2022/04/07 08:05:00;;;;;;;9.80;4.90;;;;;;;;;;5053781;28;20108;-77
2022/04/07 08:07:27;;;;;;;12.57;7.57;;;;;;;;;;5052932;28;20112;-79
2022/04/07 08:09:55;;;;;;;7.47;4.05;;;;;;;;;;5053306;28;20476;-78
2022/04/07 08:12:22;;;;;;;9.68;5.25;;;;;;;;;;5053364;28;20032;-78
2022/04/07 08:14:48;;;;;;;15.15;8.15;;;;;;;;;;5053028;28;20040;-76
2022/04/07 08:17:14;;;;;;;10.20;7.22;;;;;;;;;;5053349;28;20019;-78
2022/04/07 08:19:51;;;;;;;17.27;11.45;;;;;;;;;;5052986;28;20119;-80
2022/04/07 08:22:17;;;;;;;44.15;32.03;;;;;;;;;;5052576;28;20037;-79
2022/04/07 08:24:44;;;;;;;16.58;8.77;;;;;;;;;;5052533;28;20068;-81
2022/04/07 08:27:12;;;;;;;27.92;18.65;;;;;;;;;;5052688;28;20031;-78
2022/04/07 08:29:38;;;;;;;27.75;18.58;;;;;;;;;;5065199;28;20029;-80
2022/04/07 08:32:07;;;;;;;20.33;13.52;;;;;;;;;;5055719;28;20044;-80
2022/04/07 08:34:35;;;;;;;12.73;8.25;;;;;;;;;;5051260;28;20487;-79
2022/04/07 08:37:01;;;;;;;16.70;12.27;;;;;;;;;;5058827;28;20021;-80
2022/04/07 08:39:27;;;;;;;25.05;19.13;;;;;;;;;;5050779;28;20468;-79
2022/04/07 08:41:53;;;;;;;22.98;17.52;;;;;;;;;;5052384;28;20060;-80
2022/04/07 08:44:20;;;;;;;17.58;11.75;;;;;;;;;;5052956;28;20025;-78
2022/04/07 08:47:05;;;;;;;11.10;6.93;;;;;;;;;;5051936;28;20070;-80
2022/04/07 08:49:32;;;;;;;15.23;9.00;;;;;;;;;;5063891;28;20048;-77
2022/04/07 08:51:58;;;;;;;16.05;10.32;;;;;;;;;;5066639;28;20017;-78
2022/04/07 08:54:25;;;;;;;14.13;9.88;;;;;;;;;;5051343;28;20427;-78
2022/04/07 08:56:51;;;;;;;11.60;9.32;;;;;;;;;;5051851;28;20103;-73
2022/04/07 08:59:17;;;;;;;13.65;7.97;;;;;;;;;;5052178;28;20037;-81
2022/04/07 09:01:44;;;;;;;16.23;9.52;;;;;;;;;;5050759;28;20522;-78
2022/04/07 09:04:13;;;;;;;10.70;7.78;;;;;;;;;;5052166;28;20430;-79
2022/04/07 09:06:41;;;;;;;9.98;5.53;;;;;;;;;;5051672;28;20170;-78
2022/04/07 09:09:10;;;;;;;13.80;8.48;;;;;;;;;;5052037;28;20108;-77
2022/04/07 09:11:37;;;;;;;12.32;7.68;;;;;;;;;;5051157;28;20366;-77
2022/04/07 09:14:03;;;;;;;18.63;10.77;;;;;;;;;;5051870;28;20033;-83
2022/04/07 09:16:29;;;;;;;240.50;81.32;;;;;;;;;;5049607;28;20032;-80
2022/04/07 09:18:55;;;;;;;125.00;42.90;;;;;;;;;;5050999;28;20526;-74
2022/04/07 09:21:26;;;;;;;86.30;28.38;;;;;;;;;;5051625;28;20127;-78
2022/04/07 09:23:55;;;;;;;22.50;8.73;;;;;;;;;;5051661;28;20539;-79
2022/04/07 09:26:22;;;;;;;87.75;34.92;;;;;;;;;;5060178;28;20044;-78
2022/04/07 09:28:49;;;;;;;117.85;46.72;;;;;;;;;;5045851;28;20051;-79
2022/04/07 09:31:16;;;;;;;152.88;59.45;;;;;;;;;;5053025;28;20487;-79
2022/04/07 09:34:02;;;;;;;48.08;19.10;;;;;;;;;;5054147;28;20025;-79
2022/04/07 09:36:28;;;;;;;12.48;6.50;;;;;;;;;;5051343;28;20079;-81
2022/04/07 09:38:55;;;;;;;33.88;13.20;;;;;;;;;;5051152;28;20028;-78
2022/04/07 09:41:22;;;;;;;26.52;10.88;;;;;;;;;;5052050;28;20025;-77
2022/04/07 09:43:48;;;;;;;47.97;17.98;;;;;;;;;;5052405;28;20500;-79
2022/04/07 09:46:18;;;;;;;29.23;10.82;;;;;;;;;;5051901;28;20104;-75
2022/04/07 09:49:03;;;;;;;89.50;32.13;;;;;;;;;;5052639;28;20036;-78
2022/04/07 09:51:30;;;;;;;121.95;43.42;;;;;;;;;;5051813;28;20125;-78
2022/04/07 09:53:57;;;;;;;86.90;32.95;;;;;;;;;;5050782;28;20151;-77
2022/04/07 09:56:27;;;;;;;31.83;12.30;;;;;;;;;;5052124;28;20036;-80
2022/04/07 09:58:54;;;;;;;27.13;10.40;;;;;;;;;;5051217;28;20414;-77
2022/04/07 10:01:22;;;;;;;14.77;5.97;;;;;;;;;;5051696;28;20512;-78
2022/04/07 10:03:52;;;;;;;14.77;6.20;;;;;;;;;;5051416;28;20056;-82
2022/04/07 10:06:21;;;;;;;14.05;5.53;;;;;;;;;;5051966;28;20051;-76
2022/04/07 10:08:57;;;;;;;11.00;4.47;;;;;;;;;;5052188;28;20395;-81
2022/04/07 10:11:23;;;;;;;15.07;6.25;;;;;;;;;;5051170;28;20033;-78
2022/04/07 10:13:59;;;;;;;15.18;5.25;;;;;;;;;;5051660;28;20021;-79
2022/04/07 10:16:25;;;;;;;10.85;4.32;;;;;;;;;;5052048;28;20415;-80
2022/04/07 10:19:10;;;;;;;10.30;4.78;;;;;;;;;;5052454;28;20120;-81
2022/04/07 10:21:39;;;;;;;9.40;3.40;;;;;;;;;;5051137;28;20041;-80
2022/04/07 10:24:24;;;;;;;9.10;3.17;;;;;;;;;;5068881;28;20475;-79
2022/04/07 10:26:50;;;;;;;7.40;3.55;;;;;;;;;;5060125;28;20055;-82
2022/04/07 10:29:21;;;;;;;7.40;3.33;;;;;;;;;;5050276;28;20037;-77
2022/04/07 10:32:26;;;;;;;9.45;2.75;;;;;;;;;;5053470;28;20048;-76
2022/04/07 10:34:54;;;;;;;6.72;2.78;;;;;;;;;;4990043;28;20433;-74
2022/04/07 10:37:38;;;;;;;7.97;3.25;;;;;;;;;;4989879;28;20193;-78
2022/04/07 10:40:23;;;;;;;7.18;2.40;;;;;;;;;;4989736;28;20063;-78
2022/04/07 10:42:49;;;;;;;;;;;;;;;;;;4988392;28;20058;-79
2022/04/07 10:45:15;;;;;;;6.88;2.63;;;;;;;;;;4992578;28;19960;-80
2022/04/07 10:47:41;;;;;;;7.95;2.67;;;;;;;;;;5049642;28;20037;-79
2022/04/07 10:50:10;;;;;;;5.93;2.85;;;;;;;;;;5051361;28;20029;-80
2022/04/07 10:52:39;;;;;;;11.88;3.55;;;;;;;;;;5050598;28;20124;-79
2022/04/07 10:55:12;;;;;;;8.00;3.70;;;;;;;;;;5050889;28;20028;-77
2022/04/07 10:57:58;;;;;;;12.65;4.55;;;;;;;;;;5051185;28;20424;-79
2022/04/07 11:00:38;;;;;;;14.27;4.53;;;;;;;;;;5050030;28;20052;-77
2022/04/07 11:03:17;;;;;;;12.38;4.15;;;;;;;;;;5050085;28;20074;-75
2022/04/07 11:05:53;;;;;;;11.32;4.60;;;;;;;;;;5051176;28;20024;-77
2022/04/07 11:08:22;;;;;;;13.05;5.18;;;;;;;;;;5050223;28;20580;-79
2022/04/07 11:10:50;;;;;;;12.45;4.55;;;;;;;;;;5050954;28;20033;-79
2022/04/07 11:13:17;;;;;;;12.15;4.00;;;;;;;;;;5051251;28;20029;-82
2022/04/07 11:15:47;;;;;;;11.20;3.55;;;;;;;;;;5051657;28;20029;-77
2022/04/07 11:18:33;;;;;;;7.60;2.80;;;;;;;;;;5051563;28;20361;-79
2022/04/07 11:21:07;;;;;;;9.38;2.83;;;;;;;;;;5050137;28;20029;-77
2022/04/07 11:23:53;;;;;;;14.43;5.10;;;;;;;;;;5051325;28;20392;-78
2022/04/07 11:26:24;;;;;;;8.70;3.05;;;;;;;;;;5054277;28;20051;-79
2022/04/07 11:29:09;;;;;;;15.88;4.25;;;;;;;;;;5053439;28;20385;-78
2022/04/07 11:31:43;;;;;;;12.20;3.85;;;;;;;;;;5054452;28;20029;-79
2022/04/07 11:34:28;;;;;;;7.77;3.30;;;;;;;;;;5055121;28;20401;-78
2022/04/07 11:36:54;;;;;;;8.18;3.55;;;;;;;;;;5054626;28;20299;-78
2022/04/07 11:39:21;;;;;;;14.43;3.85;;;;;;;;;;5054903;28;20071;-78
2022/04/07 11:41:47;;;;;;;10.60;4.07;;;;;;;;;;5054844;28;20029;-79
2022/04/07 11:44:14;;;;;;;10.30;5.28;;;;;;;;;;5054659;28;20056;-78
2022/04/07 11:46:40;;;;;;;8.98;3.70;;;;;;;;;;5055070;28;20037;-78
2022/04/07 11:49:07;;;;;;;13.85;5.55;;;;;;;;;;5054595;28;20036;-78
2022/04/07 11:51:34;;;;;;;10.85;3.85;;;;;;;;;;5054927;28;20021;-78
2022/04/07 11:54:01;;;;;;;13.38;4.97;;;;;;;;;;5054637;28;20020;-78
2022/04/07 11:56:27;;;;;;;13.40;4.03;;;;;;;;;;5053512;28;20096;-78
2022/04/07 11:58:57;;;;;;;11.60;4.72;;;;;;;;;;5054556;28;20044;-79
2022/04/07 12:01:24;;;;;;;16.65;5.93;;;;;;;;;;5054601;28;20474;-78
2022/04/07 12:03:57;;;;;;;14.20;6.53;;;;;;;;;;5054876;28;20028;-81
2022/04/07 12:06:27;;;;;;;15.82;4.03;;;;;;;;;;5054443;28;20043;-78
2022/04/07 12:08:55;;;;;;;11.68;3.78;;;;;;;;;;5052735;28;20068;-78
2022/04/07 12:11:21;;;;;;;13.95;3.97;;;;;;;;;;5054448;28;20522;-79
2022/04/07 12:13:51;;;;;;;11.30;4.20;;;;;;;;;;5054532;28;20033;-77
2022/04/07 12:16:17;;;;;;;9.65;3.40;;;;;;;;;;5054394;28;20064;-80
2022/04/07 12:18:52;;;;;;;10.93;4.40;;;;;;;;;;5054814;28;20037;-78
2022/04/07 12:21:19;;;;;;;11.98;4.47;;;;;;;;;;5053987;28;20052;-78
2022/04/07 12:23:47;;;;;;;14.13;5.20;;;;;;;;;;5054703;28;20017;-81
2022/04/07 12:26:14;;;;;;;10.85;4.22;;;;;;;;;;5054389;28;20101;-81
2022/04/07 12:28:40;;;;;;;11.77;4.80;;;;;;;;;;5053684;28;20041;-80
2022/04/07 12:31:13;;;;;;;10.65;3.42;;;;;;;;;;5053449;28;20025;-79
2022/04/07 12:33:46;;;;;;;11.13;3.78;;;;;;;;;;5050284;28;20116;-79
2022/04/07 12:36:14;;;;;;;11.32;3.65;;;;;;;;;;5032995;28;20025;-78
2022/04/07 12:38:41;;;;;;;16.42;6.00;;;;;;;;;;5033789;28;20026;-81
2022/04/07 12:41:12;;;;;;;9.07;4.35;;;;;;;;;;5034039;28;20021;-80
2022/04/07 12:43:45;;;;;;;10.07;4.50;;;;;;;;;;5034697;28;20503;-81
2022/04/07 12:46:11;;;;;;;10.23;3.72;;;;;;;;;;5046206;28;20037;-80
2022/04/07 12:48:40;;;;;;;11.85;4.05;;;;;;;;;;5053482;28;20041;-78
2022/04/07 12:51:24;;;;;;;10.48;3.03;;;;;;;;;;5053146;28;20025;-81
2022/04/07 12:53:52;;;;;;;11.93;3.88;;;;;;;;;;5053352;28;20431;-78
2022/04/07 12:56:25;;;;;;;12.70;3.85;;;;;;;;;;5052784;28;20032;-76
2022/04/07 12:59:01;;;;;;;8.18;3.28;;;;;;;;;;5052851;28;20139;-79
2022/04/07 13:01:28;;;;;;;9.63;3.70;;;;;;;;;;5052350;28;20033;-77
2022/04/07 13:03:56;;;;;;;11.20;3.78;;;;;;;;;;5053961;28;20064;-79
2022/04/07 13:06:22;;;;;;;8.30;3.17;;;;;;;;;;5053675;28;20522;-79
2022/04/07 13:08:49;;;;;;;9.15;3.40;;;;;;;;;;5052311;28;20049;-81
2022/04/07 13:11:35;;;;;;;12.82;3.55;;;;;;;;;;5053437;28;20057;-83
2022/04/07 13:14:01;;;;;;;10.95;3.63;;;;;;;;;;5053541;28;20025;-79
2022/04/07 13:16:28;;;;;;;8.63;3.30;;;;;;;;;;5053395;28;20037;-78
2022/04/07 13:18:54;;;;;;;13.38;4.88;;;;;;;;;;5053609;28;20135;-78
2022/04/07 13:21:20;;;;;;;8.52;3.63;;;;;;;;;;5053011;28;20032;-78
2022/04/07 13:23:46;;;;;;;11.15;4.03;;;;;;;;;;5053304;28;20025;-76
2022/04/07 13:26:12;;;;;;;9.23;3.25;;;;;;;;;;5053163;28;20029;-76
2022/04/07 13:28:38;;;;;;;13.02;3.97;;;;;;;;;;5052999;28;20387;-78
2022/04/07 13:31:04;;;;;;;10.48;3.13;;;;;;;;;;5053076;28;20092;-77
2022/04/07 13:33:30;;;;;;;8.63;3.50;;;;;;;;;;5052688;28;20032;-78
2022/04/07 13:35:56;;;;;;;8.05;3.40;;;;;;;;;;5052844;28;20095;-78
2022/04/07 13:38:23;;;;;;;11.32;3.75;;;;;;;;;;5052716;28;20055;-77
2022/04/07 13:40:49;;;;;;;10.20;3.90;;;;;;;;;;5052253;28;20056;-77
2022/04/07 13:43:19;;;;;;;11.82;5.60;;;;;;;;;;5051024;28;20036;-78
2022/04/07 13:45:45;;;;;;;10.73;3.13;;;;;;;;;;5052409;28;20044;-79
2022/04/07 13:48:15;;;;;;;10.32;2.97;;;;;;;;;;5052255;28;20431;-81
2022/04/07 13:50:41;;;;;;;15.18;5.38;;;;;;;;;;5052524;28;20384;-78
2022/04/07 13:53:10;;;;;;;12.63;4.28;;;;;;;;;;5052626;28;20120;-77
2022/04/07 13:55:36;;;;;;;14.23;5.13;;;;;;;;;;5051838;28;20029;-77
2022/04/07 13:58:03;;;;;;;9.52;4.38;;;;;;;;;;5051929;28;20103;-79
2022/04/07 14:00:29;;;;;;;9.13;4.15;;;;;;;;;;5051464;28;20024;-79
2022/04/07 14:02:56;;;;;;;11.38;3.75;;;;;;;;;;5051294;28;20036;-78
2022/04/07 14:05:22;;;;;;;28.20;21.00;;;;;;;;;;5051575;28;20032;-80
2022/04/07 14:07:48;;;;;;;14.77;7.00;;;;;;;;;;5049961;28;20048;-80
2022/04/07 14:10:15;;;;;;;13.27;4.60;;;;;;;;;;5051495;28;20078;-79
2022/04/07 14:12:41;;;;;;;11.85;4.15;;;;;;;;;;5052061;28;20029;-79
2022/04/07 14:15:08;;;;;;;10.70;3.40;;;;;;;;;;5051047;28;20111;-79
2022/04/07 14:17:34;;;;;;;12.48;3.95;;;;;;;;;;5052296;28;20031;-80
2022/04/07 14:20:00;;;;;;;13.40;5.45;;;;;;;;;;5051682;28;20033;-78
2022/04/07 14:22:26;;;;;;;12.25;4.47;;;;;;;;;;5052003;28;20033;-78
2022/04/07 14:24:52;;;;;;;11.65;4.47;;;;;;;;;;5052311;28;20033;-80
2022/04/07 14:27:19;;;;;;;10.90;4.32;;;;;;;;;;5051912;28;20031;-78
2022/04/07 14:29:45;;;;;;;12.82;3.97;;;;;;;;;;5052179;28;20395;-78
2022/04/07 14:32:12;;;;;;;13.35;6.93;;;;;;;;;;5051584;28;20100;-79
2022/04/07 14:34:38;;;;;;;20.83;7.63;;;;;;;;;;5051821;28;20029;-77
2022/04/07 14:37:05;;;;;;;13.32;4.50;;;;;;;;;;5049923;28;20025;-78
2022/04/07 14:39:31;;;;;;;13.38;4.15;;;;;;;;;;5051756;28;20107;-78